createdAt,value
2018-11-25T10:03:36.515Z,1007.72
2018-11-25T10:04:36.454Z,1007.66
2018-11-25T10:05:36.522Z,1007.68
2018-11-25T10:06:36.441Z,1007.73
2018-11-25T10:07:36.523Z,1007.72
2018-11-25T10:08:36.404Z,1007.69
2018-11-25T10:09:36.544Z,1007.68
2018-11-25T10:10:36.383Z,1007.68
2018-11-25T10:11:36.456Z,1007.66
2018-11-25T10:12:36.382Z,1007.66
2018-11-25T10:13:36.429Z,1007.56
2018-11-25T10:14:36.351Z,1007.57
2018-11-25T10:15:36.395Z,1007.63
2018-11-25T10:16:36.322Z,1007.59
2018-11-25T10:17:36.362Z,1007.62
2018-11-25T10:18:36.294Z,1007.60
2018-11-25T10:19:36.370Z,1007.59
2018-11-25T10:20:36.295Z,1007.65
2018-11-25T10:21:36.299Z,1007.59
2018-11-25T10:22:36.245Z,1007.59
2018-11-25T10:23:36.269Z,1007.52
2018-11-25T10:24:36.226Z,1007.59
2018-11-25T10:25:36.274Z,1007.53
2018-11-25T10:26:36.203Z,1007.51
2018-11-25T10:27:36.307Z,1007.57
2018-11-25T10:28:36.183Z,1007.54
2018-11-25T10:29:36.273Z,1007.56
2018-11-25T10:30:36.179Z,1007.52
2018-11-25T10:31:36.245Z,1007.53
2018-11-25T10:32:36.133Z,1007.57
2018-11-25T10:33:36.221Z,1007.48
2018-11-25T10:34:36.123Z,1007.50
2018-11-25T10:35:36.219Z,1007.55
2018-11-25T10:36:36.087Z,1007.46
2018-11-25T10:37:36.156Z,1007.53
2018-11-25T10:38:36.063Z,1007.57
2018-11-25T10:39:36.113Z,1007.51
2018-11-25T10:40:36.124Z,1007.52
2018-11-25T10:41:36.224Z,1007.54
2018-11-25T10:42:36.023Z,1007.54
2018-11-25T10:43:36.053Z,1007.48
2018-11-25T10:44:35.995Z,1007.48
2018-11-25T10:45:36.023Z,1007.50
2018-11-25T10:46:35.999Z,1007.45
2018-11-25T10:47:36.091Z,1007.44
2018-11-25T10:48:35.958Z,1007.47
2018-11-25T10:49:36.055Z,1007.45
2018-11-25T10:50:35.960Z,1007.46
2018-11-25T10:51:36.031Z,1007.45
2018-11-25T10:52:35.914Z,1007.46
2018-11-25T10:53:35.991Z,1007.46
2018-11-25T10:54:35.885Z,1007.40
2018-11-25T10:55:36.005Z,1007.40
2018-11-25T10:56:35.867Z,1007.50
2018-11-25T10:57:35.926Z,1007.50
2018-11-25T10:58:35.845Z,1007.51
2018-11-25T10:59:36.936Z,1007.47
2018-11-25T11:00:36.172Z,1007.44
2018-11-25T11:01:35.871Z,1007.46
2018-11-25T11:02:35.812Z,1007.47
2018-11-25T11:03:35.830Z,1007.50
2018-11-25T11:04:35.773Z,1007.46
2018-11-25T11:05:35.858Z,1007.49
2018-11-25T11:06:35.758Z,1007.44
2018-11-25T11:07:35.866Z,1007.46
2018-11-25T11:08:35.731Z,1007.46
2018-11-25T11:09:43.821Z,1007.49
2018-11-25T11:10:35.784Z,1007.43
2018-11-25T11:11:35.808Z,1007.39
2018-11-25T11:12:35.689Z,1007.37
2018-11-25T11:13:35.780Z,1007.38
2018-11-25T11:14:35.670Z,1007.31
2018-11-25T11:15:35.771Z,1007.36
2018-11-25T11:16:35.642Z,1007.36
2018-11-25T11:17:35.719Z,1007.36
2018-11-25T11:18:35.621Z,1007.41
2018-11-25T11:19:35.679Z,1007.36
2018-11-25T11:20:35.624Z,1007.37
2018-11-25T11:21:35.649Z,1007.37
2018-11-25T11:22:35.581Z,1007.43
2018-11-25T11:23:35.622Z,1007.37
2018-11-25T11:24:35.560Z,1007.41
2018-11-25T11:25:35.621Z,1007.38
2018-11-25T11:26:35.537Z,1007.39
2018-11-25T11:27:35.553Z,1007.31
2018-11-25T11:28:35.515Z,1007.30
2018-11-25T11:29:35.623Z,1007.33
2018-11-25T11:30:35.511Z,1007.31
2018-11-25T11:31:35.603Z,1007.32
2018-11-25T11:32:35.464Z,1007.41
2018-11-25T11:33:35.555Z,1007.41
2018-11-25T11:34:35.447Z,1007.42
2018-11-25T11:35:35.642Z,1007.46
2018-11-25T11:36:35.427Z,1007.48
2018-11-25T11:37:35.493Z,1007.48
2018-11-25T11:38:35.427Z,1007.44
2018-11-25T11:39:35.466Z,1007.44
2018-11-25T11:40:35.408Z,1007.47
2018-11-25T11:41:35.429Z,1007.45
2018-11-25T11:42:35.357Z,1007.40
2018-11-25T11:43:35.441Z,1007.43
2018-11-25T11:44:35.335Z,1007.45
2018-11-25T11:45:35.408Z,1007.41
2018-11-25T11:46:35.308Z,1007.39
2018-11-25T11:47:35.332Z,1007.33
2018-11-25T11:48:35.289Z,1007.37
2018-11-25T11:49:35.403Z,1007.35
2018-11-25T11:50:35.299Z,1007.35
2018-11-25T11:51:35.376Z,1007.36
2018-11-25T11:52:35.251Z,1007.33
2018-11-25T11:53:35.342Z,1007.32
2018-11-25T11:54:35.254Z,1007.32
2018-11-25T11:55:35.367Z,1007.29
2018-11-25T11:56:40.194Z,1007.26
2018-11-25T11:57:36.303Z,1007.26
2018-11-25T11:58:35.180Z,1007.27
2018-11-25T11:59:35.249Z,1007.29
2018-11-25T12:00:35.157Z,1007.25
2018-11-25T12:01:35.252Z,1007.27
2018-11-25T12:02:35.153Z,1007.26
2018-11-25T12:03:35.184Z,1007.29
2018-11-25T12:04:35.118Z,1007.33
2018-11-25T12:05:35.146Z,1007.30
2018-11-25T12:06:35.134Z,1007.35
2018-11-25T12:07:35.125Z,1007.29
2018-11-25T12:08:35.068Z,1007.29
2018-11-25T12:09:36.110Z,1007.33
2018-11-25T12:10:35.054Z,1007.32
2018-11-25T12:11:35.082Z,1007.36
2018-11-25T12:12:35.026Z,1007.35
2018-11-25T12:13:35.124Z,1007.37
2018-11-25T12:14:35.008Z,1007.39
2018-11-25T12:15:36.130Z,1007.38
2018-11-25T12:16:35.002Z,1007.42
2018-11-25T12:17:35.060Z,1007.41
2018-11-25T12:18:34.964Z,1007.46
2018-11-25T12:19:36.079Z,1007.48
2018-11-25T12:20:34.967Z,1007.44
2018-11-25T12:21:35.046Z,1007.45
2018-11-25T12:22:34.914Z,1007.47
2018-11-25T12:23:34.966Z,1007.40
2018-11-25T12:24:34.904Z,1007.38
2018-11-25T12:25:34.944Z,1007.42
2018-11-25T12:26:34.892Z,1007.40
2018-11-25T12:27:34.906Z,1007.36
2018-11-25T12:28:34.853Z,1007.37
2018-11-25T12:29:34.865Z,1007.35
2018-11-25T12:30:34.838Z,1007.32
2018-11-25T12:31:34.874Z,1007.30
2018-11-25T12:32:34.821Z,1007.31
2018-11-25T12:33:34.923Z,1007.29
2018-11-25T12:34:34.787Z,1007.30
2018-11-25T12:35:42.859Z,1007.26
2018-11-25T12:36:34.788Z,1007.25
2018-11-25T12:37:36.059Z,1007.21
2018-11-25T12:38:34.746Z,1007.24
2018-11-25T12:39:34.810Z,1007.25
2018-11-25T12:40:34.720Z,1007.25
2018-11-25T12:41:34.816Z,1007.26
2018-11-25T12:42:34.702Z,1007.29
2018-11-25T12:43:35.764Z,1007.26
2018-11-25T12:44:34.668Z,1007.28
2018-11-25T12:45:34.771Z,1007.32
2018-11-25T12:46:34.681Z,1007.32
2018-11-25T12:47:34.718Z,1007.28
2018-11-25T12:48:34.623Z,1007.27
2018-11-25T12:49:34.656Z,1007.33
2018-11-25T12:50:34.606Z,1007.34
2018-11-25T12:51:35.646Z,1007.30
2018-11-25T12:52:34.604Z,1007.27
2018-11-25T12:53:34.696Z,1007.25
2018-11-25T12:54:34.564Z,1007.29
2018-11-25T12:55:34.664Z,1007.28
2018-11-25T12:56:34.538Z,1007.24
2018-11-25T12:57:34.656Z,1007.23
2018-11-25T12:58:34.516Z,1007.29
2018-11-25T12:59:34.614Z,1007.29
2018-11-25T13:00:34.504Z,1007.27
2018-11-25T13:01:34.571Z,1007.28
2018-11-25T13:02:34.489Z,1007.26
2018-11-25T13:03:34.533Z,1007.24
2018-11-25T13:04:34.465Z,1007.24
2018-11-25T13:05:34.493Z,1007.26
2018-11-25T13:06:34.450Z,1007.23
2018-11-25T13:07:34.509Z,1007.21
2018-11-25T13:08:34.409Z,1007.20
2018-11-25T13:09:34.434Z,1007.25
2018-11-25T13:10:34.403Z,1007.22
2018-11-25T13:11:34.402Z,1007.22
2018-11-25T13:12:34.373Z,1007.20
2018-11-25T13:13:34.454Z,1007.24
2018-11-25T13:14:34.343Z,1007.20
2018-11-25T13:15:34.440Z,1007.19
2018-11-25T13:16:34.329Z,1007.17
2018-11-25T13:17:34.429Z,1007.15
2018-11-25T13:18:35.774Z,1007.16
2018-11-25T13:19:34.377Z,1007.19
2018-11-25T13:20:34.272Z,1007.17
2018-11-25T13:21:34.388Z,1007.23
2018-11-25T13:22:34.264Z,1007.20
2018-11-25T13:23:34.311Z,1007.18
2018-11-25T13:24:34.231Z,1007.16
2018-11-25T13:25:34.286Z,1007.16
2018-11-25T13:26:34.230Z,1007.15
2018-11-25T13:27:34.247Z,1007.18
2018-11-25T13:28:34.208Z,1007.13
2018-11-25T13:29:34.219Z,1007.08
2018-11-25T13:30:34.165Z,1007.09
2018-11-25T13:31:35.318Z,1007.11
2018-11-25T13:32:34.139Z,1007.22
2018-11-25T13:33:35.211Z,1007.15
2018-11-25T13:34:34.130Z,1007.12
2018-11-25T13:35:38.107Z,1007.16
2018-11-25T13:36:34.110Z,1007.16
2018-11-25T13:37:34.190Z,1007.12
2018-11-25T13:38:34.093Z,1007.12
2018-11-25T13:39:36.108Z,1007.10
2018-11-25T13:40:34.056Z,1007.09
2018-11-25T13:41:34.174Z,1007.10
2018-11-25T13:42:34.025Z,1007.13
2018-11-25T13:43:34.149Z,1007.18
2018-11-25T13:44:34.015Z,1007.19
2018-11-25T13:45:34.062Z,1007.09
2018-11-25T13:46:34.020Z,1007.16
2018-11-25T13:47:34.032Z,1007.18
2018-11-25T13:48:34.032Z,1007.17
2018-11-25T13:49:34.016Z,1007.14
2018-11-25T13:50:33.938Z,1007.16
2018-11-25T13:51:33.970Z,1007.14
2018-11-25T13:52:33.921Z,1007.15
2018-11-25T13:53:34.002Z,1007.13
2018-11-25T13:54:33.898Z,1007.15
2018-11-25T13:55:35.576Z,1007.09
2018-11-25T13:56:33.906Z,1007.09
2018-11-25T13:57:33.972Z,1007.06
2018-11-25T13:58:33.885Z,1007.07
2018-11-25T13:59:33.943Z,1007.09
2018-11-25T14:00:34.685Z,1007.03
2018-11-25T14:01:33.907Z,1007.03
2018-11-25T14:02:33.810Z,1007.02
2018-11-25T14:03:33.897Z,1007.05
2018-11-25T14:04:33.816Z,1007.02
2018-11-25T14:05:33.850Z,1006.98
2018-11-25T14:06:33.760Z,1007.04
2018-11-25T14:07:33.815Z,1007.03
2018-11-25T14:08:34.643Z,1007.01
2018-11-25T14:09:33.840Z,1007.06
2018-11-25T14:10:33.719Z,1007.01
2018-11-25T14:11:33.762Z,1007.10
2018-11-25T14:12:33.699Z,1007.05
2018-11-25T14:13:40.772Z,1007.10
2018-11-25T14:14:33.684Z,1007.08
2018-11-25T14:15:33.696Z,1007.11
2018-11-25T14:16:34.941Z,1007.06
2018-11-25T14:17:33.693Z,1007.07
2018-11-25T14:18:33.664Z,1006.98
2018-11-25T14:19:33.731Z,1007.00
2018-11-25T14:20:33.616Z,1006.93
2018-11-25T14:21:33.690Z,1006.92
2018-11-25T14:22:33.605Z,1006.97
2018-11-25T14:23:33.662Z,1006.94
2018-11-25T14:24:33.574Z,1006.98
2018-11-25T14:25:33.632Z,1006.99
2018-11-25T14:26:33.535Z,1006.98
2018-11-25T14:27:33.598Z,1007.02
2018-11-25T14:28:33.509Z,1006.99
2018-11-25T14:29:33.611Z,1006.99
2018-11-25T14:30:33.512Z,1006.99
2018-11-25T14:31:33.535Z,1007.00
2018-11-25T14:32:33.464Z,1007.04
2018-11-25T14:33:34.531Z,1007.04
2018-11-25T14:34:33.477Z,1007.06
2018-11-25T14:35:33.570Z,1007.06
2018-11-25T14:36:33.460Z,1007.05
2018-11-25T14:37:33.446Z,1007.07
2018-11-25T14:38:33.406Z,1007.04
2018-11-25T14:39:33.451Z,1007.08
2018-11-25T14:40:33.390Z,1007.08
2018-11-25T14:41:33.480Z,1007.08
2018-11-25T14:42:33.378Z,1007.05
2018-11-25T14:43:33.447Z,1007.07
2018-11-25T14:44:33.333Z,1007.05
2018-11-25T14:45:33.415Z,1007.09
2018-11-25T14:46:33.308Z,1007.14
2018-11-25T14:47:33.437Z,1007.12
2018-11-25T14:48:33.301Z,1007.11
2018-11-25T14:49:33.349Z,1007.11
2018-11-25T14:50:33.288Z,1007.10
2018-11-25T14:51:33.325Z,1007.11
2018-11-25T14:52:33.246Z,1007.10
2018-11-25T14:53:33.285Z,1007.12
2018-11-25T14:54:33.234Z,1007.11
2018-11-25T14:55:33.292Z,1007.14
2018-11-25T14:56:33.206Z,1007.13
2018-11-25T14:57:33.221Z,1007.17
2018-11-25T14:58:33.191Z,1007.17
2018-11-25T14:59:33.300Z,1007.14
2018-11-25T15:00:33.179Z,1007.18
2018-11-25T15:01:33.261Z,1007.18
2018-11-25T15:02:33.132Z,1007.20
2018-11-25T15:03:34.147Z,1007.16
2018-11-25T15:04:36.288Z,1007.20
2018-11-25T15:05:33.244Z,1007.25
2018-11-25T15:06:33.083Z,1007.21
2018-11-25T15:07:33.163Z,1007.21
2018-11-25T15:08:33.079Z,1007.21
2018-11-25T15:09:33.141Z,1007.24
2018-11-25T15:10:33.074Z,1007.27
2018-11-25T15:11:33.110Z,1007.24
2018-11-25T15:12:33.037Z,1007.20
2018-11-25T15:13:33.077Z,1007.29
2018-11-25T15:14:33.014Z,1007.32
2018-11-25T15:15:33.100Z,1007.33
2018-11-25T15:16:32.974Z,1007.36
2018-11-25T15:17:33.012Z,1007.37
2018-11-25T15:18:32.953Z,1007.31
2018-11-25T15:19:32.968Z,1007.36
2018-11-25T15:20:32.952Z,1007.38
2018-11-25T15:21:33.066Z,1007.38
2018-11-25T15:22:32.909Z,1007.37
2018-11-25T15:23:33.007Z,1007.41
2018-11-25T15:24:32.895Z,1007.42
2018-11-25T15:25:33.022Z,1007.42
2018-11-25T15:26:32.875Z,1007.40
2018-11-25T15:27:32.980Z,1007.42
2018-11-25T15:28:32.843Z,1007.43
2018-11-25T15:29:32.911Z,1007.48
2018-11-25T15:30:32.823Z,1007.47
2018-11-25T15:31:32.927Z,1007.46
2018-11-25T15:32:32.812Z,1007.49
2018-11-25T15:33:32.845Z,1007.47
2018-11-25T15:34:32.788Z,1007.45
2018-11-25T15:35:32.892Z,1007.36
2018-11-25T15:36:32.775Z,1007.40
2018-11-25T15:37:32.789Z,1007.38
2018-11-25T15:38:32.750Z,1007.43
2018-11-25T15:39:32.772Z,1007.43
2018-11-25T15:40:32.725Z,1007.42
2018-11-25T15:41:32.766Z,1007.47
2018-11-25T15:42:32.691Z,1007.46
2018-11-25T15:43:32.798Z,1007.44
2018-11-25T15:44:32.678Z,1007.42
2018-11-25T15:45:32.761Z,1007.45
2018-11-25T15:46:32.677Z,1007.41
2018-11-25T15:47:32.727Z,1007.47
2018-11-25T15:48:32.620Z,1007.47
2018-11-25T15:49:33.735Z,1007.45
2018-11-25T15:50:32.611Z,1007.54
2018-11-25T15:51:32.702Z,1007.47
2018-11-25T15:52:32.617Z,1007.54
2018-11-25T15:53:32.651Z,1007.46
2018-11-25T15:54:32.551Z,1007.51
2018-11-25T15:55:32.599Z,1007.49
2018-11-25T15:56:32.585Z,1007.49
2018-11-25T15:57:32.619Z,1007.51
2018-11-25T15:58:32.530Z,1007.47
2018-11-25T15:59:32.536Z,1007.54
2018-11-25T16:00:32.489Z,1007.48
2018-11-25T16:01:32.545Z,1007.51
2018-11-25T16:02:32.471Z,1007.45
2018-11-25T16:03:32.594Z,1007.46
2018-11-25T16:04:32.447Z,1007.47
2018-11-25T16:05:32.562Z,1007.53
2018-11-25T16:06:32.460Z,1007.55
2018-11-25T16:07:32.508Z,1007.50
2018-11-25T16:08:37.991Z,1007.52
2018-11-25T16:09:33.508Z,1007.54
2018-11-25T16:10:32.416Z,1007.53
2018-11-25T16:11:32.511Z,1007.53
2018-11-25T16:12:32.378Z,1007.56
2018-11-25T16:13:32.426Z,1007.52
2018-11-25T16:14:32.343Z,1007.56
2018-11-25T16:15:32.390Z,1007.50
2018-11-25T16:16:32.361Z,1007.53
2018-11-25T16:17:32.407Z,1007.47
2018-11-25T16:18:32.283Z,1007.53
2018-11-25T16:19:32.334Z,1007.59
2018-11-25T16:20:32.268Z,1007.57
2018-11-25T16:21:32.292Z,1007.58
2018-11-25T16:22:32.276Z,1007.56
2018-11-25T16:23:32.255Z,1007.56
2018-11-25T16:24:32.227Z,1007.58
2018-11-25T16:25:32.332Z,1007.57
2018-11-25T16:26:32.208Z,1007.59
2018-11-25T16:27:32.338Z,1007.59
2018-11-25T16:28:32.197Z,1007.56
2018-11-25T16:29:34.228Z,1007.58
2018-11-25T16:30:32.158Z,1007.59
2018-11-25T16:31:47.171Z,1007.57
2018-11-25T16:32:32.153Z,1007.56
2018-11-25T16:33:32.208Z,1007.59
2018-11-25T16:34:32.105Z,1007.59
2018-11-25T16:35:32.172Z,1007.60
2018-11-25T16:36:32.088Z,1007.59
2018-11-25T16:37:32.190Z,1007.56
2018-11-25T16:38:32.077Z,1007.59
2018-11-25T16:39:32.124Z,1007.62
2018-11-25T16:40:32.061Z,1007.59
2018-11-25T16:41:32.068Z,1007.62
2018-11-25T16:42:32.057Z,1007.57
2018-11-25T16:43:32.038Z,1007.58
2018-11-25T16:44:32.001Z,1007.57
2018-11-25T16:45:32.119Z,1007.57
2018-11-25T16:46:31.988Z,1007.59
2018-11-25T16:47:32.113Z,1007.58
2018-11-25T16:48:31.955Z,1007.61
2018-11-25T16:49:33.335Z,1007.62
2018-11-25T16:50:31.932Z,1007.61
2018-11-25T16:51:32.025Z,1007.57
2018-11-25T16:52:31.936Z,1007.56
2018-11-25T16:53:31.992Z,1007.55
2018-11-25T16:54:31.889Z,1007.55
2018-11-25T16:55:31.954Z,1007.55
2018-11-25T16:56:31.869Z,1007.50
2018-11-25T16:57:31.963Z,1007.52
2018-11-25T16:58:31.864Z,1007.53
2018-11-25T16:59:31.911Z,1007.58
2018-11-25T17:00:31.823Z,1007.49
2018-11-25T17:01:31.852Z,1007.51
2018-11-25T17:02:31.823Z,1007.51
2018-11-25T17:03:31.819Z,1007.52
2018-11-25T17:04:31.785Z,1007.56
2018-11-25T17:05:31.789Z,1007.54
2018-11-25T17:06:31.767Z,1007.55
2018-11-25T17:07:31.790Z,1007.59
2018-11-25T17:08:31.739Z,1007.59
2018-11-25T17:09:31.860Z,1007.63
2018-11-25T17:10:31.709Z,1007.64
2018-11-25T17:11:31.818Z,1007.63
2018-11-25T17:12:31.705Z,1007.66
2018-11-25T17:13:31.776Z,1007.63
2018-11-25T17:14:33.830Z,1007.60
2018-11-25T17:15:31.733Z,1007.67
2018-11-25T17:16:31.638Z,1007.67
2018-11-25T17:17:31.804Z,1007.70
2018-11-25T17:18:31.621Z,1007.71
2018-11-25T17:19:31.667Z,1007.70
2018-11-25T17:20:31.599Z,1007.73
2018-11-25T17:21:31.637Z,1007.70
2018-11-25T17:22:31.605Z,1007.72
2018-11-25T17:23:31.639Z,1007.75
2018-11-25T17:24:31.579Z,1007.75
2018-11-25T17:25:31.579Z,1007.74
2018-11-25T17:26:31.530Z,1007.75
2018-11-25T17:27:31.587Z,1007.74
2018-11-25T17:28:31.510Z,1007.78
2018-11-25T17:29:31.620Z,1007.75
2018-11-25T17:30:31.489Z,1007.74
2018-11-25T17:31:31.598Z,1007.70
2018-11-25T17:32:31.476Z,1007.69
2018-11-25T17:33:31.585Z,1007.72
2018-11-25T17:34:31.471Z,1007.66
2018-11-25T17:35:31.537Z,1007.66
2018-11-25T17:36:31.435Z,1007.67
2018-11-25T17:37:31.501Z,1007.61
2018-11-25T17:38:31.424Z,1007.64
2018-11-25T17:39:31.467Z,1007.67
2018-11-25T17:40:31.369Z,1007.60
2018-11-25T17:41:31.421Z,1007.69
2018-11-25T17:42:31.384Z,1007.65
2018-11-25T17:43:31.426Z,1007.70
2018-11-25T17:44:31.321Z,1007.65
2018-11-25T17:45:31.357Z,1007.72
2018-11-25T17:46:31.306Z,1007.69
2018-11-25T17:47:31.324Z,1007.68
2018-11-25T17:48:31.419Z,1007.70
2018-11-25T17:49:31.293Z,1007.68
2018-11-25T17:50:31.266Z,1007.68
2018-11-25T17:51:31.363Z,1007.70
2018-11-25T17:52:31.235Z,1007.67
2018-11-25T17:53:31.271Z,1007.66
2018-11-25T17:54:31.219Z,1007.68
2018-11-25T17:55:31.294Z,1007.70
2018-11-25T17:56:31.190Z,1007.68
2018-11-25T17:57:32.304Z,1007.67
2018-11-25T17:58:31.197Z,1007.67
2018-11-25T17:59:33.278Z,1007.71
2018-11-25T18:00:31.147Z,1007.66
2018-11-25T18:01:32.249Z,1007.63
2018-11-25T18:02:31.130Z,1007.73
2018-11-25T18:03:31.219Z,1007.72
2018-11-25T18:04:31.107Z,1007.69
2018-11-25T18:05:38.472Z,1007.65
2018-11-25T18:06:32.079Z,1007.68
2018-11-25T18:07:32.135Z,1007.67
2018-11-25T18:08:31.118Z,1007.67
2018-11-25T18:09:31.080Z,1007.65
2018-11-25T18:10:31.053Z,1007.64
2018-11-25T18:11:31.167Z,1007.69
2018-11-25T18:12:31.025Z,1007.73
2018-11-25T18:13:31.154Z,1007.73
2018-11-25T18:14:30.999Z,1007.73
2018-11-25T18:15:31.094Z,1007.77
2018-11-25T18:16:30.995Z,1007.78
2018-11-25T18:17:31.059Z,1007.71
2018-11-25T18:18:30.966Z,1007.73
2018-11-25T18:19:31.024Z,1007.77
2018-11-25T18:20:30.930Z,1007.80
2018-11-25T18:21:30.987Z,1007.81
2018-11-25T18:22:30.905Z,1007.80
2018-11-25T18:23:30.961Z,1007.83
2018-11-25T18:24:30.899Z,1007.79
2018-11-25T18:25:31.946Z,1007.77
2018-11-25T18:26:30.876Z,1007.79
2018-11-25T18:27:31.921Z,1007.85
2018-11-25T18:28:30.849Z,1007.81
2018-11-25T18:29:30.901Z,1007.78
2018-11-25T18:30:30.818Z,1007.74
2018-11-25T18:31:30.822Z,1007.78
2018-11-25T18:32:30.793Z,1007.72
2018-11-25T18:33:30.833Z,1007.78
2018-11-25T18:34:30.803Z,1007.76
2018-11-25T18:35:31.788Z,1007.77
2018-11-25T18:36:30.756Z,1007.73
2018-11-25T18:37:30.837Z,1007.74
2018-11-25T18:38:30.733Z,1007.81
2018-11-25T18:39:30.839Z,1007.81
2018-11-25T18:40:30.706Z,1007.78
2018-11-25T18:41:30.778Z,1007.84
2018-11-25T18:42:30.689Z,1007.84
2018-11-25T18:43:31.800Z,1007.87
2018-11-25T18:44:30.668Z,1007.82
2018-11-25T18:45:30.709Z,1007.92
2018-11-25T18:46:30.653Z,1007.91
2018-11-25T18:47:31.695Z,1007.85
2018-11-25T18:48:30.642Z,1007.88
2018-11-25T18:49:30.716Z,1007.89
2018-11-25T18:50:30.594Z,1007.87
2018-11-25T18:51:30.618Z,1007.82
2018-11-25T18:52:30.572Z,1007.84
2018-11-25T18:53:31.608Z,1007.79
2018-11-25T18:54:30.584Z,1007.84
2018-11-25T18:55:30.656Z,1007.82
2018-11-25T18:56:30.527Z,1007.82
2018-11-25T18:57:30.620Z,1007.72
2018-11-25T18:58:30.529Z,1007.73
2018-11-25T18:59:30.633Z,1007.77
2018-11-25T19:00:30.489Z,1007.82
2018-11-25T19:01:30.560Z,1007.80
2018-11-25T19:02:30.469Z,1007.77
2018-11-25T19:03:30.529Z,1007.80
2018-11-25T19:04:30.463Z,1007.80
2018-11-25T19:05:30.498Z,1007.82
2018-11-25T19:06:30.428Z,1007.75
2018-11-25T19:07:30.458Z,1007.82
2018-11-25T19:08:30.403Z,1007.84
2018-11-25T19:09:30.461Z,1007.81
2018-11-25T19:10:30.370Z,1007.81
2018-11-25T19:11:31.424Z,1007.83
2018-11-25T19:12:30.362Z,1007.83
2018-11-25T19:13:30.479Z,1007.84
2018-11-25T19:14:30.363Z,1007.82
2018-11-25T19:15:30.434Z,1007.89
2018-11-25T19:16:30.336Z,1007.89
2018-11-25T19:17:30.412Z,1007.85
2018-11-25T19:18:30.306Z,1007.89
2018-11-25T19:19:30.417Z,1007.89
2018-11-25T19:20:30.257Z,1007.92
2018-11-25T19:21:30.371Z,1007.93
2018-11-25T19:22:30.237Z,1007.92
2018-11-25T19:23:30.301Z,1007.91
2018-11-25T19:24:30.219Z,1007.90
2018-11-25T19:25:31.337Z,1007.89
2018-11-25T19:26:30.205Z,1007.92
2018-11-25T19:27:30.243Z,1007.94
2018-11-25T19:28:30.170Z,1007.97
2018-11-25T19:29:31.233Z,1007.94
2018-11-25T19:30:30.183Z,1008.01
2018-11-25T19:31:30.187Z,1007.97
2018-11-25T19:32:30.129Z,1007.96
2018-11-25T19:33:30.145Z,1008.04
2018-11-25T19:34:30.105Z,1008.07
2018-11-25T19:35:30.169Z,1008.08
2018-11-25T19:36:30.094Z,1008.04
2018-11-25T19:37:31.106Z,1008.07
2018-11-25T19:38:30.083Z,1008.04
2018-11-25T19:39:30.155Z,1008.05
2018-11-25T19:40:30.057Z,1008.05
2018-11-25T19:41:30.129Z,1008.05
2018-11-25T19:42:30.020Z,1008.02
2018-11-25T19:43:30.094Z,1008.01
2018-11-25T19:44:30.013Z,1008.01
2018-11-25T19:45:30.104Z,1008.01
2018-11-25T19:46:29.991Z,1008.02
2018-11-25T19:47:30.231Z,1008.01
2018-11-25T19:48:29.953Z,1007.99
2018-11-25T19:49:30.103Z,1007.93
2018-11-25T19:50:29.986Z,1007.99
2018-11-25T19:51:30.069Z,1007.99
2018-11-25T19:52:29.904Z,1007.96
2018-11-25T19:53:30.043Z,1007.97
2018-11-25T19:54:29.894Z,1008.01
2018-11-25T19:55:30.043Z,1008.08
2018-11-25T19:56:29.869Z,1008.04
2018-11-25T19:57:29.980Z,1008.02
2018-11-25T19:58:29.841Z,1008.06
2018-11-25T19:59:29.938Z,1008.04
2018-11-25T20:00:29.835Z,1007.99
2018-11-25T20:01:31.029Z,1008.09
2018-11-25T20:02:29.806Z,1008.11
2018-11-25T20:03:29.883Z,1008.03
2018-11-25T20:04:29.806Z,1008.06
2018-11-25T20:05:29.885Z,1008.14
2018-11-25T20:06:29.763Z,1008.12
2018-11-25T20:07:29.918Z,1008.15
2018-11-25T20:08:29.733Z,1008.00
2018-11-25T20:09:31.825Z,1008.12
2018-11-25T20:10:29.737Z,1008.15
2018-11-25T20:11:29.756Z,1008.15
2018-11-25T20:12:29.690Z,1008.15
2018-11-25T20:13:29.722Z,1008.17
2018-11-25T20:14:29.677Z,1008.16
2018-11-25T20:15:29.731Z,1008.20
2018-11-25T20:16:29.648Z,1008.10
2018-11-25T20:17:29.762Z,1008.09
2018-11-25T20:18:29.611Z,1008.10
2018-11-25T20:19:29.729Z,1008.13
2018-11-25T20:20:29.657Z,1008.15
2018-11-25T20:21:29.689Z,1008.15
2018-11-25T20:22:29.579Z,1008.16
2018-11-25T20:23:29.755Z,1008.13
2018-11-25T20:24:29.551Z,1008.15
2018-11-25T20:25:29.660Z,1008.19
2018-11-25T20:26:29.543Z,1008.15
2018-11-25T20:27:29.601Z,1008.14
2018-11-25T20:28:29.504Z,1008.11
2018-11-25T20:29:29.670Z,1008.06
2018-11-25T20:30:29.492Z,1008.13
2018-11-25T20:31:29.585Z,1008.15
2018-11-25T20:32:29.455Z,1008.14
2018-11-25T20:33:29.608Z,1008.09
2018-11-25T20:34:29.443Z,1008.13
2018-11-25T20:35:29.567Z,1008.12
2018-11-25T20:36:29.455Z,1008.07
2018-11-25T20:37:29.546Z,1008.06
2018-11-25T20:38:29.398Z,1008.10
2018-11-25T20:39:29.505Z,1008.12
2018-11-25T20:40:29.404Z,1008.09
2018-11-25T20:41:29.530Z,1008.07
2018-11-25T20:42:29.364Z,1008.09
2018-11-25T20:43:29.446Z,1008.07
2018-11-25T20:44:29.336Z,1008.10
2018-11-25T20:45:29.413Z,1008.06
2018-11-25T20:46:29.340Z,1008.12
2018-11-25T20:47:29.508Z,1008.17
2018-11-25T20:48:29.311Z,1008.19
2018-11-25T20:49:29.337Z,1008.22
2018-11-25T20:50:29.267Z,1008.19
2018-11-25T20:51:29.466Z,1008.21
2018-11-25T20:52:29.240Z,1008.21
2018-11-25T20:53:30.298Z,1008.20
2018-11-25T20:54:29.218Z,1008.17
2018-11-25T20:55:29.368Z,1008.22
2018-11-25T20:56:29.248Z,1008.22
2018-11-25T20:57:29.320Z,1008.23
2018-11-25T20:58:29.205Z,1008.22
2018-11-25T20:59:29.289Z,1008.26
2018-11-25T21:00:29.162Z,1008.21
2018-11-25T21:01:30.281Z,1008.18
2018-11-25T21:02:29.501Z,1008.21
2018-11-25T21:03:29.337Z,1008.24
2018-11-25T21:04:29.120Z,1008.24
2018-11-25T21:05:30.211Z,1008.21
2018-11-25T21:06:29.090Z,1008.25
2018-11-25T21:07:29.307Z,1008.31
2018-11-25T21:08:29.056Z,1008.26
2018-11-25T21:09:30.164Z,1008.27
2018-11-25T21:10:29.036Z,1008.23
2018-11-25T21:11:29.107Z,1008.28
2018-11-25T21:12:29.029Z,1008.22
2018-11-25T21:13:29.163Z,1008.18
2018-11-25T21:14:28.989Z,1008.22
2018-11-25T21:15:29.130Z,1008.24
2018-11-25T21:16:28.959Z,1008.23
2018-11-25T21:17:29.154Z,1008.21
2018-11-25T21:18:28.936Z,1008.19
2018-11-25T21:19:30.101Z,1008.22
2018-11-25T21:20:28.919Z,1008.21
2018-11-25T21:21:29.032Z,1008.22
2018-11-25T21:22:29.035Z,1008.23
2018-11-25T21:23:30.025Z,1008.18
2018-11-25T21:24:28.876Z,1008.22
2018-11-25T21:25:28.972Z,1008.24
2018-11-25T21:26:28.869Z,1008.18
2018-11-25T21:27:28.977Z,1008.20
2018-11-25T21:28:28.839Z,1008.23
2018-11-25T21:29:29.316Z,1008.18
2018-11-25T21:30:28.858Z,1008.14
2018-11-25T21:31:28.992Z,1008.21
2018-11-25T21:32:28.799Z,1008.20
2018-11-25T21:33:28.842Z,1008.19
2018-11-25T21:34:29.856Z,1008.24
2018-11-25T21:35:28.928Z,1008.25
2018-11-25T21:36:28.738Z,1008.20
2018-11-25T21:37:28.816Z,1008.21
2018-11-25T21:38:28.708Z,1008.22
2018-11-25T21:39:28.848Z,1008.21
2018-11-25T21:40:28.698Z,1008.25
2018-11-25T21:41:28.816Z,1008.23
2018-11-25T21:42:29.566Z,1008.20
2018-11-25T21:43:28.804Z,1008.23
2018-11-25T21:44:29.510Z,1008.21
2018-11-25T21:45:28.760Z,1008.22
2018-11-25T21:46:29.164Z,1008.22
2018-11-25T21:47:28.756Z,1008.21
2018-11-25T21:48:28.605Z,1008.23
2018-11-25T21:49:29.709Z,1008.23
2018-11-25T21:50:28.590Z,1008.20
2018-11-25T21:51:28.660Z,1008.22
2018-11-25T21:52:28.557Z,1008.23
2018-11-25T21:53:29.692Z,1008.19
2018-11-25T21:54:28.530Z,1008.22
2018-11-25T21:55:30.641Z,1008.21
2018-11-25T21:56:28.518Z,1008.21
2018-11-25T21:57:28.669Z,1008.19
2018-11-25T21:58:28.894Z,1008.21
2018-11-25T21:59:28.632Z,1008.18
2018-11-25T22:00:28.478Z,1008.17
2018-11-25T22:01:28.610Z,1008.17
2018-11-25T22:02:28.450Z,1008.21
2018-11-25T22:03:28.606Z,1008.24
2018-11-25T22:04:28.421Z,1008.29
2018-11-25T22:05:28.543Z,1008.22
2018-11-25T22:06:28.411Z,1008.26
2018-11-25T22:07:28.502Z,1008.29
2018-11-25T22:08:28.429Z,1008.25